createdAt,value
2022-10-20T00:04:35.556Z,7.10
2022-10-20T00:09:37.068Z,6.50
2022-10-20T00:14:38.804Z,7.07
2022-10-20T00:19:40.319Z,6.57
2022-10-20T00:24:42.224Z,6.68
2022-10-20T00:29:43.767Z,6.15
2022-10-20T00:34:45.681Z,6.90
2022-10-20T00:39:47.166Z,5.78
2022-10-20T00:44:48.607Z,7.63
2022-10-20T00:49:51.333Z,7.65
2022-10-20T00:54:52.892Z,8.95
2022-10-20T00:59:54.725Z,6.55
2022-10-20T01:04:56.379Z,7.82
2022-10-20T01:09:58.180Z,7.40
2022-10-20T01:15:09.485Z,7.82
2022-10-20T01:20:38.525Z,8.18
2022-10-20T01:25:39.945Z,6.55
2022-10-20T01:30:46.878Z,7.25
2022-10-20T01:36:14.114Z,7.22
2022-10-20T01:46:25.181Z,7.65
2022-10-20T01:51:26.739Z,6.10
2022-10-20T01:56:38.980Z,7.05
2022-10-20T02:02:04.117Z,7.00
2022-10-20T02:07:15.523Z,6.93
2022-10-20T02:12:22.625Z,6.43
2022-10-20T02:17:24.232Z,6.32
2022-10-20T02:22:26.432Z,5.93
2022-10-20T02:27:32.551Z,5.72
2022-10-20T02:32:36.654Z,5.82
2022-10-20T02:37:38.686Z,6.00
2022-10-20T02:42:40.698Z,6.38
2022-10-20T02:47:42.209Z,5.93
2022-10-20T02:52:43.726Z,6.60
2022-10-20T02:57:45.223Z,6.20
2022-10-20T03:02:47.115Z,6.55
2022-10-20T03:07:48.633Z,5.45
2022-10-20T03:12:50.173Z,5.18
2022-10-20T03:17:51.669Z,6.00
2022-10-20T03:22:53.276Z,5.97
2022-10-20T03:27:54.800Z,4.95
2022-10-20T03:32:56.363Z,5.75
2022-10-20T03:37:57.877Z,5.00
2022-10-20T03:42:59.413Z,4.97
2022-10-20T03:48:00.952Z,5.57
2022-10-20T03:53:02.447Z,4.95
2022-10-20T03:58:06.653Z,4.65
2022-10-20T04:03:08.185Z,6.13
2022-10-20T04:08:09.840Z,5.13
2022-10-20T04:13:11.387Z,5.18
2022-10-20T04:18:12.897Z,4.30
2022-10-20T04:23:14.840Z,4.50
2022-10-20T04:28:18.607Z,5.15
2022-10-20T04:33:20.127Z,4.75
2022-10-20T04:38:21.637Z,4.80
2022-10-20T04:43:23.272Z,5.07
2022-10-20T04:48:25.291Z,5.30
2022-10-20T04:53:26.861Z,5.57
2022-10-20T04:58:28.608Z,4.88
2022-10-20T05:03:30.245Z,5.07
2022-10-20T05:08:31.789Z,4.85
2022-10-20T05:13:33.657Z,4.78
2022-10-20T05:18:35.616Z,4.68
2022-10-20T05:23:39.549Z,4.63
2022-10-20T05:28:46.055Z,5.47
2022-10-20T05:33:50.407Z,5.57
2022-10-20T05:38:53.731Z,4.82
2022-10-20T05:43:59.941Z,5.78
2022-10-20T05:49:03.285Z,5.28
2022-10-20T05:54:04.809Z,6.13
2022-10-20T05:59:06.444Z,5.25
2022-10-20T06:04:08.074Z,6.40
2022-10-20T06:09:10.999Z,5.18
2022-10-20T06:14:12.533Z,5.60
2022-10-20T06:19:14.040Z,5.72
2022-10-20T06:24:17.674Z,5.68
2022-10-20T06:29:19.243Z,5.70
2022-10-20T06:34:23.656Z,5.28
2022-10-20T06:39:25.298Z,5.60
2022-10-20T06:44:26.778Z,5.97
2022-10-20T06:49:28.307Z,5.65
2022-10-20T06:54:29.957Z,5.45
2022-10-20T06:59:31.625Z,5.25
2022-10-20T07:04:33.197Z,6.55
2022-10-20T07:09:34.769Z,6.13
2022-10-20T07:14:36.338Z,5.45
2022-10-20T07:19:37.828Z,6.05
2022-10-20T07:24:39.428Z,6.30
2022-10-20T07:29:41.021Z,5.88
2022-10-20T07:34:42.635Z,5.85
2022-10-20T07:39:44.173Z,6.45
2022-10-20T07:44:46.124Z,6.72
2022-10-20T07:49:47.739Z,6.32
2022-10-20T07:54:49.251Z,5.97
2022-10-20T07:59:51.026Z,5.93
2022-10-20T08:04:52.563Z,6.15
2022-10-20T08:09:54.545Z,6.22
2022-10-20T08:20:20.392Z,5.85
2022-10-20T08:25:24.087Z,5.97
2022-10-20T08:30:25.757Z,6.65
2022-10-20T08:35:27.601Z,6.57
2022-10-20T08:40:31.235Z,6.63
2022-10-20T08:45:38.224Z,6.63
2022-10-20T08:50:45.439Z,5.72
2022-10-20T08:55:47.227Z,5.95
2022-10-20T09:00:56.210Z,6.43
2022-10-20T09:06:13.273Z,7.18
2022-10-20T09:11:22.473Z,7.45
2022-10-20T09:16:40.647Z,6.30
2022-10-20T09:21:46.056Z,6.30
2022-10-20T09:27:05.510Z,6.43
2022-10-20T09:32:46.645Z,6.75
2022-10-20T09:38:10.599Z,7.07
2022-10-20T09:43:17.750Z,7.22
2022-10-20T09:48:42.510Z,5.75
2022-10-20T09:54:03.285Z,6.22
2022-10-20T09:59:27.022Z,7.28
2022-10-20T10:04:38.334Z,7.82
2022-10-20T10:09:39.850Z,7.43
2022-10-20T10:14:56.003Z,8.52
2022-10-20T10:19:57.686Z,8.53
2022-10-20T10:25:00.669Z,7.95
2022-10-20T10:30:24.169Z,8.25
2022-10-20T10:35:41.581Z,8.68
2022-10-20T10:40:56.917Z,8.32
2022-10-20T10:46:05.206Z,9.48
2022-10-20T10:51:48.455Z,11.40
2022-10-20T10:56:54.523Z,10.20
2022-10-20T11:02:33.679Z,10.87
2022-10-20T11:08:06.404Z,10.95
2022-10-20T11:13:36.843Z,13.25
2022-10-20T11:19:03.373Z,11.52
2022-10-20T11:24:31.038Z,11.97
2022-10-20T11:29:55.820Z,11.27
2022-10-20T11:34:57.335Z,12.32
2022-10-20T11:40:18.208Z,13.18
2022-10-20T11:45:26.833Z,12.77
2022-10-20T11:50:29.562Z,12.73
2022-10-20T11:55:59.073Z,12.98
2022-10-20T12:01:29.829Z,14.07
2022-10-20T12:06:57.390Z,13.88
2022-10-20T12:12:05.395Z,14.98
2022-10-20T12:17:29.517Z,13.65
2022-10-20T12:22:40.798Z,13.65
2022-10-20T12:27:42.418Z,15.60
2022-10-20T12:32:55.805Z,15.40
2022-10-20T12:38:00.268Z,14.18
2022-10-20T12:43:01.957Z,15.00
2022-10-20T12:48:07.026Z,13.60
2022-10-20T12:53:13.567Z,14.65
2022-10-20T12:58:18.032Z,16.13
2022-10-20T13:03:49.369Z,15.00
2022-10-20T13:09:03.231Z,14.98
2022-10-20T13:14:37.539Z,14.30
2022-10-20T13:19:47.614Z,13.05
2022-10-20T13:24:50.964Z,13.65
2022-10-20T13:29:53.310Z,13.82
2022-10-20T13:35:03.812Z,13.63
2022-10-20T13:40:26.039Z,13.60
2022-10-20T13:45:51.287Z,13.60
2022-10-20T13:51:04.525Z,14.88
2022-10-20T13:56:07.840Z,14.25
2022-10-20T14:01:12.676Z,14.30
2022-10-20T14:06:36.622Z,15.00
2022-10-20T14:11:39.399Z,13.63
2022-10-20T14:16:56.211Z,13.32
2022-10-20T14:27:03.371Z,12.50
2022-10-20T14:32:06.565Z,14.13
2022-10-20T14:37:24.585Z,13.65
2022-10-20T14:42:30.403Z,14.18
2022-10-20T14:47:40.647Z,13.93
2022-10-20T14:52:42.692Z,13.88
2022-10-20T14:57:44.724Z,13.80
2022-10-20T15:02:46.437Z,14.68
2022-10-20T15:07:48.155Z,15.10
2022-10-20T15:12:52.387Z,15.40
2022-10-20T15:18:13.428Z,13.50
2022-10-20T15:23:16.629Z,14.55
2022-10-20T15:28:29.975Z,13.90
2022-10-20T15:33:31.702Z,14.68
2022-10-20T15:38:33.263Z,15.70
2022-10-20T15:43:34.771Z,14.73
2022-10-20T15:48:36.338Z,16.73
2022-10-20T15:53:37.842Z,16.05
2022-10-20T15:58:39.995Z,15.68
2022-10-20T16:03:41.685Z,16.63
2022-10-20T16:08:46.150Z,16.13
2022-10-20T16:13:48.687Z,17.60
2022-10-20T16:18:50.207Z,17.90
2022-10-20T16:23:51.804Z,18.98
2022-10-20T16:28:53.443Z,17.90
2022-10-20T16:33:54.973Z,19.85
2022-10-20T16:38:57.112Z,19.52
2022-10-20T16:44:00.951Z,21.35
2022-10-20T16:49:03.123Z,19.65
2022-10-20T16:54:04.714Z,19.95
2022-10-20T16:59:06.269Z,19.08
2022-10-20T17:04:07.856Z,19.52
2022-10-20T17:09:09.456Z,19.23
2022-10-20T17:14:11.068Z,20.13
2022-10-20T17:19:12.588Z,19.13
2022-10-20T17:24:14.260Z,17.83
2022-10-20T17:29:15.858Z,18.15
2022-10-20T17:34:17.461Z,18.90
2022-10-20T17:39:19.059Z,19.40
2022-10-20T17:44:20.627Z,19.13
2022-10-20T17:49:22.221Z,19.95
2022-10-20T17:54:23.865Z,21.17
2022-10-20T17:59:25.475Z,24.67
2022-10-20T18:04:27.064Z,21.10
2022-10-20T18:09:28.707Z,20.65
2022-10-20T18:14:30.388Z,19.90
2022-10-20T18:19:31.939Z,20.23
2022-10-20T18:24:33.528Z,19.23
2022-10-20T18:29:35.105Z,19.23
2022-10-20T18:34:36.705Z,19.08
2022-10-20T18:39:38.233Z,17.38
2022-10-20T18:44:39.808Z,18.90
2022-10-20T18:49:41.380Z,19.10
2022-10-20T18:54:42.992Z,19.08
2022-10-20T18:59:44.557Z,18.55
2022-10-20T19:04:46.183Z,18.17
2022-10-20T19:09:49.188Z,17.67
2022-10-20T19:14:53.755Z,19.03
2022-10-20T19:19:55.301Z,18.80
2022-10-20T19:24:56.841Z,18.88
2022-10-20T19:29:58.463Z,19.90
2022-10-20T19:35:00.015Z,19.33
2022-10-20T19:40:01.701Z,18.35
2022-10-20T19:45:04.220Z,18.05
2022-10-20T19:50:06.060Z,18.30
2022-10-20T19:55:07.818Z,19.17
2022-10-20T20:00:09.931Z,20.80
2022-10-20T20:05:11.486Z,20.30
2022-10-20T20:10:13.095Z,20.15
2022-10-20T20:15:14.667Z,18.73
2022-10-20T20:20:16.306Z,20.23
2022-10-20T20:25:17.814Z,19.58
2022-10-20T20:30:19.360Z,19.13
2022-10-20T20:35:20.986Z,20.40
2022-10-20T20:40:22.865Z,20.45
2022-10-20T20:45:24.378Z,20.33
2022-10-20T20:50:25.848Z,19.40
2022-10-20T20:55:27.393Z,17.70
2022-10-20T21:00:28.935Z,19.85
2022-10-20T21:05:30.465Z,18.73
2022-10-20T21:10:32.118Z,18.20
2022-10-20T21:15:33.751Z,20.77
2022-10-20T21:20:35.518Z,19.85
2022-10-20T21:25:37.028Z,19.67
2022-10-20T21:30:40.108Z,20.23
2022-10-20T21:35:41.639Z,20.83
2022-10-20T21:40:43.170Z,21.77
2022-10-20T21:45:44.690Z,19.08
2022-10-20T21:50:46.186Z,20.42
2022-10-20T21:55:47.718Z,21.77
2022-10-20T22:00:49.279Z,19.20
2022-10-20T22:05:51.672Z,20.30
2022-10-20T22:10:56.221Z,19.52
2022-10-20T22:15:57.920Z,20.10
2022-10-20T22:21:11.200Z,19.90
2022-10-20T22:26:15.136Z,19.25
2022-10-20T22:31:18.099Z,18.85
2022-10-20T22:36:20.754Z,17.25
2022-10-20T22:41:22.532Z,15.77
2022-10-20T22:46:24.091Z,15.63
2022-10-20T22:51:25.669Z,17.00
2022-10-20T22:56:27.149Z,15.15
2022-10-20T23:01:29.047Z,14.15
2022-10-20T23:06:30.647Z,14.90
2022-10-20T23:11:32.253Z,13.75
2022-10-20T23:16:33.751Z,13.77
2022-10-20T23:21:35.254Z,14.65
2022-10-20T23:26:36.736Z,14.50
2022-10-20T23:31:38.392Z,15.63
2022-10-20T23:36:39.910Z,15.00
2022-10-20T23:41:41.528Z,13.93
2022-10-20T23:46:43.013Z,14.15
2022-10-20T23:51:44.478Z,14.02
2022-10-20T23:56:45.998Z,13.05
